sensor_id;sensor_type;location;lat;lon;timestamp;P1;durP1;ratioP1;P2;durP2;ratioP2
8060;SDS011;4073;42.626;25.386;2022-11-15T00:00:40;33.60;;;25.00;;
8060;SDS011;4073;42.626;25.386;2022-11-15T00:03:05;33.07;;;25.07;;
8060;SDS011;4073;42.626;25.386;2022-11-15T00:05:34;37.70;;;25.37;;
8060;SDS011;4073;42.626;25.386;2022-11-15T00:08:00;30.90;;;24.00;;
8060;SDS011;4073;42.626;25.386;2022-11-15T00:10:26;39.93;;;28.30;;
8060;SDS011;4073;42.626;25.386;2022-11-15T00:12:51;39.40;;;27.07;;
8060;SDS011;4073;42.626;25.386;2022-11-15T00:15:17;38.97;;;25.80;;
8060;SDS011;4073;42.626;25.386;2022-11-15T00:17:42;37.20;;;25.17;;
8060;SDS011;4073;42.626;25.386;2022-11-15T00:20:08;33.73;;;25.67;;
8060;SDS011;4073;42.626;25.386;2022-11-15T00:22:34;35.57;;;24.83;;
8060;SDS011;4073;42.626;25.386;2022-11-15T00:24:59;34.00;;;24.30;;
8060;SDS011;4073;42.626;25.386;2022-11-15T00:27:25;34.67;;;25.53;;
8060;SDS011;4073;42.626;25.386;2022-11-15T00:29:51;43.20;;;27.93;;
8060;SDS011;4073;42.626;25.386;2022-11-15T00:32:16;46.33;;;26.67;;
8060;SDS011;4073;42.626;25.386;2022-11-15T00:34:42;43.17;;;28.10;;
8060;SDS011;4073;42.626;25.386;2022-11-15T00:37:07;45.43;;;27.63;;
8060;SDS011;4073;42.626;25.386;2022-11-15T00:39:32;40.13;;;26.27;;
8060;SDS011;4073;42.626;25.386;2022-11-15T00:41:58;41.57;;;26.80;;
8060;SDS011;4073;42.626;25.386;2022-11-15T00:44:23;40.53;;;27.40;;
8060;SDS011;4073;42.626;25.386;2022-11-15T00:46:49;39.13;;;28.83;;
8060;SDS011;4073;42.626;25.386;2022-11-15T00:49:14;49.00;;;27.60;;
8060;SDS011;4073;42.626;25.386;2022-11-15T00:51:39;45.67;;;29.37;;
8060;SDS011;4073;42.626;25.386;2022-11-15T00:54:05;52.00;;;28.63;;
8060;SDS011;4073;42.626;25.386;2022-11-15T00:56:30;51.20;;;30.20;;
8060;SDS011;4073;42.626;25.386;2022-11-15T00:58:56;51.63;;;28.43;;
8060;SDS011;4073;42.626;25.386;2022-11-15T01:01:21;47.40;;;27.77;;
8060;SDS011;4073;42.626;25.386;2022-11-15T01:03:47;43.57;;;28.20;;
8060;SDS011;4073;42.626;25.386;2022-11-15T01:06:12;47.67;;;27.07;;
8060;SDS011;4073;42.626;25.386;2022-11-15T01:08:39;44.27;;;26.77;;
8060;SDS011;4073;42.626;25.386;2022-11-15T01:11:06;44.33;;;26.90;;
8060;SDS011;4073;42.626;25.386;2022-11-15T01:13:34;42.70;;;27.97;;
8060;SDS011;4073;42.626;25.386;2022-11-15T01:16:11;42.40;;;27.80;;
8060;SDS011;4073;42.626;25.386;2022-11-15T01:18:38;45.10;;;28.73;;
8060;SDS011;4073;42.626;25.386;2022-11-15T01:21:04;47.97;;;29.13;;
8060;SDS011;4073;42.626;25.386;2022-11-15T01:23:31;46.60;;;30.30;;
8060;SDS011;4073;42.626;25.386;2022-11-15T01:26:00;48.83;;;30.70;;
8060;SDS011;4073;42.626;25.386;2022-11-15T01:28:28;49.00;;;31.67;;
8060;SDS011;4073;42.626;25.386;2022-11-15T01:30:57;49.27;;;29.63;;
8060;SDS011;4073;42.626;25.386;2022-11-15T01:33:23;57.87;;;31.60;;
8060;SDS011;4073;42.626;25.386;2022-11-15T01:35:48;57.77;;;32.17;;
8060;SDS011;4073;42.626;25.386;2022-11-15T01:38:14;54.90;;;32.10;;
8060;SDS011;4073;42.626;25.386;2022-11-15T01:40:39;67.40;;;35.60;;
8060;SDS011;4073;42.626;25.386;2022-11-15T01:43:19;62.17;;;34.10;;
8060;SDS011;4073;42.626;25.386;2022-11-15T01:45:46;65.17;;;32.07;;
8060;SDS011;4073;42.626;25.386;2022-11-15T01:48:17;64.50;;;32.77;;
8060;SDS011;4073;42.626;25.386;2022-11-15T01:50:42;57.23;;;31.77;;
8060;SDS011;4073;42.626;25.386;2022-11-15T01:53:08;62.20;;;33.63;;
8060;SDS011;4073;42.626;25.386;2022-11-15T01:55:35;65.73;;;32.37;;
8060;SDS011;4073;42.626;25.386;2022-11-15T01:58:02;58.40;;;31.17;;
8060;SDS011;4073;42.626;25.386;2022-11-15T02:00:29;50.73;;;29.30;;
8060;SDS011;4073;42.626;25.386;2022-11-15T02:02:55;56.70;;;32.17;;
8060;SDS011;4073;42.626;25.386;2022-11-15T02:05:21;57.77;;;34.40;;
8060;SDS011;4073;42.626;25.386;2022-11-15T02:07:46;48.47;;;30.53;;
8060;SDS011;4073;42.626;25.386;2022-11-15T02:10:16;63.57;;;33.07;;
8060;SDS011;4073;42.626;25.386;2022-11-15T02:12:44;54.73;;;32.77;;
8060;SDS011;4073;42.626;25.386;2022-11-15T02:15:11;58.20;;;30.67;;
8060;SDS011;4073;42.626;25.386;2022-11-15T02:17:56;52.00;;;29.33;;
8060;SDS011;4073;42.626;25.386;2022-11-15T02:31:26;55.27;;;30.83;;
8060;SDS011;4073;42.626;25.386;2022-11-15T02:36:34;51.83;;;29.23;;
8060;SDS011;4073;42.626;25.386;2022-11-15T02:44:52;54.77;;;29.60;;
8060;SDS011;4073;42.626;25.386;2022-11-15T02:47:20;51.30;;;28.90;;
8060;SDS011;4073;42.626;25.386;2022-11-15T02:49:52;51.00;;;30.43;;
8060;SDS011;4073;42.626;25.386;2022-11-15T02:52:20;49.17;;;30.43;;
8060;SDS011;4073;42.626;25.386;2022-11-15T02:54:54;49.20;;;28.43;;
8060;SDS011;4073;42.626;25.386;2022-11-15T02:58:08;43.40;;;26.93;;
8060;SDS011;4073;42.626;25.386;2022-11-15T03:00:17;54.50;;;31.33;;
8060;SDS011;4073;42.626;25.386;2022-11-15T03:14:17;45.73;;;28.30;;
8060;SDS011;4073;42.626;25.386;2022-11-15T03:19:23;45.73;;;29.60;;
8060;SDS011;4073;42.626;25.386;2022-11-15T03:21:58;46.40;;;29.47;;
8060;SDS011;4073;42.626;25.386;2022-11-15T03:24:26;45.10;;;29.07;;
8060;SDS011;4073;42.626;25.386;2022-11-15T03:26:55;47.73;;;30.23;;
8060;SDS011;4073;42.626;25.386;2022-11-15T03:29:25;47.83;;;30.03;;
8060;SDS011;4073;42.626;25.386;2022-11-15T03:31:56;47.97;;;30.93;;
8060;SDS011;4073;42.626;25.386;2022-11-15T03:37:06;50.33;;;33.17;;
8060;SDS011;4073;42.626;25.386;2022-11-15T03:39:33;54.80;;;34.33;;
8060;SDS011;4073;42.626;25.386;2022-11-15T03:47:38;49.27;;;31.47;;
8060;SDS011;4073;42.626;25.386;2022-11-15T03:50:08;49.43;;;29.60;;
8060;SDS011;4073;42.626;25.386;2022-11-15T03:52:39;52.07;;;30.40;;
8060;SDS011;4073;42.626;25.386;2022-11-15T03:55:08;49.43;;;30.93;;
8060;SDS011;4073;42.626;25.386;2022-11-15T03:57:36;53.37;;;33.30;;
8060;SDS011;4073;42.626;25.386;2022-11-15T04:00:03;51.97;;;34.70;;
8060;SDS011;4073;42.626;25.386;2022-11-15T04:02:29;58.50;;;34.40;;
8060;SDS011;4073;42.626;25.386;2022-11-15T04:04:55;51.90;;;34.00;;
8060;SDS011;4073;42.626;25.386;2022-11-15T04:07:20;55.97;;;33.90;;
8060;SDS011;4073;42.626;25.386;2022-11-15T04:09:46;55.13;;;32.47;;
8060;SDS011;4073;42.626;25.386;2022-11-15T04:12:37;53.13;;;34.00;;
8060;SDS011;4073;42.626;25.386;2022-11-15T04:15:07;51.57;;;31.10;;
8060;SDS011;4073;42.626;25.386;2022-11-15T04:17:52;57.07;;;33.03;;
8060;SDS011;4073;42.626;25.386;2022-11-15T04:20:23;54.07;;;33.03;;
8060;SDS011;4073;42.626;25.386;2022-11-15T04:23:09;52.47;;;33.23;;
8060;SDS011;4073;42.626;25.386;2022-11-15T04:26:04;48.67;;;31.23;;
8060;SDS011;4073;42.626;25.386;2022-11-15T04:28:36;47.47;;;32.13;;
8060;SDS011;4073;42.626;25.386;2022-11-15T04:31:24;55.90;;;31.23;;
8060;SDS011;4073;42.626;25.386;2022-11-15T04:33:50;52.03;;;31.10;;
8060;SDS011;4073;42.626;25.386;2022-11-15T04:36:15;50.60;;;29.93;;
8060;SDS011;4073;42.626;25.386;2022-11-15T04:38:59;51.10;;;31.03;;
8060;SDS011;4073;42.626;25.386;2022-11-15T04:41:25;51.57;;;29.70;;
8060;SDS011;4073;42.626;25.386;2022-11-15T04:43:50;50.00;;;29.63;;
8060;SDS011;4073;42.626;25.386;2022-11-15T04:46:16;53.20;;;30.40;;
8060;SDS011;4073;42.626;25.386;2022-11-15T04:48:42;53.37;;;31.07;;
8060;SDS011;4073;42.626;25.386;2022-11-15T04:51:07;52.23;;;31.27;;
8060;SDS011;4073;42.626;25.386;2022-11-15T04:53:33;56.47;;;32.33;;
8060;SDS011;4073;42.626;25.386;2022-11-15T04:55:58;56.13;;;32.97;;
8060;SDS011;4073;42.626;25.386;2022-11-15T04:58:24;59.20;;;33.03;;
8060;SDS011;4073;42.626;25.386;2022-11-15T05:00:49;59.50;;;32.97;;
8060;SDS011;4073;42.626;25.386;2022-11-15T05:03:15;51.83;;;32.50;;
8060;SDS011;4073;42.626;25.386;2022-11-15T05:05:58;67.63;;;35.43;;
8060;SDS011;4073;42.626;25.386;2022-11-15T05:08:24;57.93;;;33.90;;
8060;SDS011;4073;42.626;25.386;2022-11-15T05:10:50;50.73;;;32.40;;
8060;SDS011;4073;42.626;25.386;2022-11-15T05:13:15;60.67;;;33.93;;
8060;SDS011;4073;42.626;25.386;2022-11-15T05:15:41;53.87;;;32.53;;
8060;SDS011;4073;42.626;25.386;2022-11-15T05:18:06;65.07;;;34.23;;
8060;SDS011;4073;42.626;25.386;2022-11-15T05:20:32;56.60;;;32.27;;
8060;SDS011;4073;42.626;25.386;2022-11-15T05:22:57;59.53;;;34.17;;
8060;SDS011;4073;42.626;25.386;2022-11-15T05:25:23;48.60;;;31.83;;
8060;SDS011;4073;42.626;25.386;2022-11-15T05:27:49;51.40;;;31.60;;
8060;SDS011;4073;42.626;25.386;2022-11-15T05:30:15;62.13;;;32.57;;
8060;SDS011;4073;42.626;25.386;2022-11-15T05:32:41;58.53;;;32.73;;
8060;SDS011;4073;42.626;25.386;2022-11-15T05:35:06;59.57;;;34.07;;
8060;SDS011;4073;42.626;25.386;2022-11-15T05:37:37;79.23;;;45.73;;
8060;SDS011;4073;42.626;25.386;2022-11-15T05:40:02;73.57;;;39.90;;
8060;SDS011;4073;42.626;25.386;2022-11-15T05:42:28;62.40;;;35.33;;
8060;SDS011;4073;42.626;25.386;2022-11-15T05:44:55;73.03;;;41.00;;
8060;SDS011;4073;42.626;25.386;2022-11-15T05:47:23;68.17;;;37.30;;
8060;SDS011;4073;42.626;25.386;2022-11-15T05:49:51;66.97;;;36.40;;
8060;SDS011;4073;42.626;25.386;2022-11-15T05:52:20;71.77;;;38.40;;
8060;SDS011;4073;42.626;25.386;2022-11-15T05:54:50;72.00;;;37.50;;
8060;SDS011;4073;42.626;25.386;2022-11-15T05:57:17;70.03;;;37.60;;
8060;SDS011;4073;42.626;25.386;2022-11-15T05:59:43;65.47;;;33.83;;
8060;SDS011;4073;42.626;25.386;2022-11-15T06:02:09;64.00;;;33.23;;
8060;SDS011;4073;42.626;25.386;2022-11-15T06:04:35;60.57;;;30.67;;
8060;SDS011;4073;42.626;25.386;2022-11-15T06:07:01;61.90;;;34.80;;
8060;SDS011;4073;42.626;25.386;2022-11-15T06:09:26;63.93;;;33.70;;
8060;SDS011;4073;42.626;25.386;2022-11-15T06:11:52;62.90;;;32.30;;
8060;SDS011;4073;42.626;25.386;2022-11-15T06:14:17;57.20;;;33.70;;
8060;SDS011;4073;42.626;25.386;2022-11-15T06:16:43;66.70;;;34.03;;
8060;SDS011;4073;42.626;25.386;2022-11-15T06:19:09;60.03;;;31.13;;
8060;SDS011;4073;42.626;25.386;2022-11-15T06:21:34;69.43;;;35.50;;
8060;SDS011;4073;42.626;25.386;2022-11-15T06:24:00;58.87;;;33.20;;
8060;SDS011;4073;42.626;25.386;2022-11-15T06:26:25;55.13;;;30.50;;
8060;SDS011;4073;42.626;25.386;2022-11-15T06:28:50;54.77;;;31.57;;
8060;SDS011;4073;42.626;25.386;2022-11-15T06:31:16;64.07;;;31.63;;
8060;SDS011;4073;42.626;25.386;2022-11-15T06:33:41;53.97;;;28.77;;
8060;SDS011;4073;42.626;25.386;2022-11-15T06:36:08;53.33;;;29.27;;
8060;SDS011;4073;42.626;25.386;2022-11-15T06:38:35;54.97;;;27.87;;
8060;SDS011;4073;42.626;25.386;2022-11-15T06:41:02;49.53;;;29.43;;
8060;SDS011;4073;42.626;25.386;2022-11-15T06:43:29;57.10;;;29.33;;
8060;SDS011;4073;42.626;25.386;2022-11-15T06:45:54;53.67;;;28.70;;
8060;SDS011;4073;42.626;25.386;2022-11-15T06:48:20;52.43;;;30.37;;
8060;SDS011;4073;42.626;25.386;2022-11-15T06:50:51;54.90;;;30.70;;
8060;SDS011;4073;42.626;25.386;2022-11-15T06:53:17;53.27;;;30.63;;
8060;SDS011;4073;42.626;25.386;2022-11-15T06:55:43;50.63;;;31.80;;
8060;SDS011;4073;42.626;25.386;2022-11-15T06:58:08;54.30;;;32.13;;
8060;SDS011;4073;42.626;25.386;2022-11-15T07:00:34;54.70;;;32.63;;
8060;SDS011;4073;42.626;25.386;2022-11-15T07:03:00;54.13;;;31.87;;
8060;SDS011;4073;42.626;25.386;2022-11-15T07:05:26;57.13;;;32.13;;
8060;SDS011;4073;42.626;25.386;2022-11-15T07:07:52;51.10;;;33.97;;
8060;SDS011;4073;42.626;25.386;2022-11-15T07:10:19;57.50;;;32.60;;
8060;SDS011;4073;42.626;25.386;2022-11-15T07:12:47;52.20;;;31.17;;
8060;SDS011;4073;42.626;25.386;2022-11-15T07:15:14;55.20;;;33.17;;
8060;SDS011;4073;42.626;25.386;2022-11-15T07:17:40;56.17;;;33.43;;
8060;SDS011;4073;42.626;25.386;2022-11-15T07:20:06;55.87;;;32.47;;
8060;SDS011;4073;42.626;25.386;2022-11-15T07:22:32;55.73;;;31.27;;
8060;SDS011;4073;42.626;25.386;2022-11-15T07:24:57;52.07;;;33.13;;
8060;SDS011;4073;42.626;25.386;2022-11-15T07:27:23;51.93;;;33.40;;
8060;SDS011;4073;42.626;25.386;2022-11-15T07:29:48;56.47;;;31.90;;
8060;SDS011;4073;42.626;25.386;2022-11-15T07:32:13;54.20;;;32.00;;
8060;SDS011;4073;42.626;25.386;2022-11-15T07:34:39;51.50;;;32.20;;
8060;SDS011;4073;42.626;25.386;2022-11-15T07:37:04;50.30;;;31.17;;
8060;SDS011;4073;42.626;25.386;2022-11-15T07:39:30;54.47;;;33.40;;
8060;SDS011;4073;42.626;25.386;2022-11-15T07:41:55;54.80;;;31.47;;
8060;SDS011;4073;42.626;25.386;2022-11-15T07:44:41;51.77;;;31.93;;
8060;SDS011;4073;42.626;25.386;2022-11-15T07:47:06;54.67;;;32.70;;
8060;SDS011;4073;42.626;25.386;2022-11-15T07:49:32;60.13;;;34.53;;
8060;SDS011;4073;42.626;25.386;2022-11-15T07:51:57;50.70;;;31.53;;
8060;SDS011;4073;42.626;25.386;2022-11-15T07:54:22;49.57;;;31.07;;
8060;SDS011;4073;42.626;25.386;2022-11-15T07:56:48;61.83;;;36.07;;
8060;SDS011;4073;42.626;25.386;2022-11-15T07:59:13;70.03;;;39.90;;
8060;SDS011;4073;42.626;25.386;2022-11-15T08:01:40;63.90;;;38.03;;
8060;SDS011;4073;42.626;25.386;2022-11-15T08:04:05;61.70;;;36.17;;
8060;SDS011;4073;42.626;25.386;2022-11-15T08:06:30;59.40;;;35.70;;
8060;SDS011;4073;42.626;25.386;2022-11-15T08:08:56;52.23;;;34.23;;
8060;SDS011;4073;42.626;25.386;2022-11-15T08:11:21;67.83;;;44.53;;
8060;SDS011;4073;42.626;25.386;2022-11-15T08:13:47;51.47;;;35.23;;
8060;SDS011;4073;42.626;25.386;2022-11-15T08:16:12;57.20;;;33.23;;
8060;SDS011;4073;42.626;25.386;2022-11-15T08:18:38;54.87;;;32.80;;
8060;SDS011;4073;42.626;25.386;2022-11-15T08:21:03;53.03;;;33.00;;
8060;SDS011;4073;42.626;25.386;2022-11-15T08:23:29;51.30;;;32.73;;
8060;SDS011;4073;42.626;25.386;2022-11-15T08:26:01;50.57;;;31.40;;
8060;SDS011;4073;42.626;25.386;2022-11-15T08:28:28;51.03;;;33.30;;
8060;SDS011;4073;42.626;25.386;2022-11-15T08:30:54;44.13;;;29.17;;
8060;SDS011;4073;42.626;25.386;2022-11-15T08:33:20;46.50;;;31.13;;
8060;SDS011;4073;42.626;25.386;2022-11-15T08:35:45;49.47;;;32.63;;
8060;SDS011;4073;42.626;25.386;2022-11-15T08:38:11;50.10;;;32.00;;
8060;SDS011;4073;42.626;25.386;2022-11-15T08:40:37;48.63;;;31.10;;
8060;SDS011;4073;42.626;25.386;2022-11-15T08:43:02;47.77;;;30.67;;
8060;SDS011;4073;42.626;25.386;2022-11-15T08:45:28;49.77;;;31.20;;
8060;SDS011;4073;42.626;25.386;2022-11-15T08:47:55;39.83;;;25.93;;
8060;SDS011;4073;42.626;25.386;2022-11-15T08:50:21;33.30;;;23.47;;
8060;SDS011;4073;42.626;25.386;2022-11-15T08:52:47;32.17;;;21.90;;
8060;SDS011;4073;42.626;25.386;2022-11-15T08:55:13;33.10;;;22.90;;
8060;SDS011;4073;42.626;25.386;2022-11-15T08:57:39;36.57;;;23.47;;
8060;SDS011;4073;42.626;25.386;2022-11-15T09:00:05;33.00;;;23.37;;
8060;SDS011;4073;42.626;25.386;2022-11-15T09:02:31;32.37;;;23.37;;
8060;SDS011;4073;42.626;25.386;2022-11-15T09:04:56;36.53;;;24.17;;
8060;SDS011;4073;42.626;25.386;2022-11-15T09:07:22;34.40;;;24.00;;
8060;SDS011;4073;42.626;25.386;2022-11-15T09:09:47;31.23;;;23.43;;
8060;SDS011;4073;42.626;25.386;2022-11-15T09:12:13;33.03;;;24.07;;
8060;SDS011;4073;42.626;25.386;2022-11-15T09:14:38;33.13;;;22.73;;
8060;SDS011;4073;42.626;25.386;2022-11-15T09:17:06;35.33;;;24.30;;
8060;SDS011;4073;42.626;25.386;2022-11-15T09:19:33;30.67;;;21.97;;
8060;SDS011;4073;42.626;25.386;2022-11-15T09:21:59;31.13;;;22.27;;
8060;SDS011;4073;42.626;25.386;2022-11-15T09:24:24;31.37;;;22.80;;
8060;SDS011;4073;42.626;25.386;2022-11-15T09:26:50;37.90;;;24.10;;
8060;SDS011;4073;42.626;25.386;2022-11-15T09:29:17;32.87;;;23.63;;
8060;SDS011;4073;42.626;25.386;2022-11-15T09:31:43;39.33;;;24.27;;
8060;SDS011;4073;42.626;25.386;2022-11-15T09:34:08;32.57;;;23.27;;
8060;SDS011;4073;42.626;25.386;2022-11-15T09:36:34;32.93;;;23.53;;
8060;SDS011;4073;42.626;25.386;2022-11-15T09:39:00;27.53;;;19.50;;
8060;SDS011;4073;42.626;25.386;2022-11-15T09:44:33;27.87;;;19.67;;
8060;SDS011;4073;42.626;25.386;2022-11-15T09:47:38;30.65;;;20.42;;
8060;SDS011;4073;42.626;25.386;2022-11-15T09:50:11;30.73;;;19.90;;
8060;SDS011;4073;42.626;25.386;2022-11-15T09:52:39;29.87;;;21.27;;
8060;SDS011;4073;42.626;25.386;2022-11-15T09:55:08;27.70;;;21.27;;
8060;SDS011;4073;42.626;25.386;2022-11-15T10:00:19;23.70;;;18.47;;
8060;SDS011;4073;42.626;25.386;2022-11-15T10:05:44;25.90;;;19.67;;
8060;SDS011;4073;42.626;25.386;2022-11-15T10:10:54;27.17;;;19.20;;
8060;SDS011;4073;42.626;25.386;2022-11-15T10:13:26;27.50;;;20.23;;
8060;SDS011;4073;42.626;25.386;2022-11-15T10:15:56;29.63;;;20.00;;
8060;SDS011;4073;42.626;25.386;2022-11-15T10:21:39;24.33;;;18.60;;
8060;SDS011;4073;42.626;25.386;2022-11-15T10:24:18;23.63;;;18.77;;
8060;SDS011;4073;42.626;25.386;2022-11-15T10:26:54;27.83;;;19.20;;
8060;SDS011;4073;42.626;25.386;2022-11-15T10:29:21;25.53;;;18.90;;
8060;SDS011;4073;42.626;25.386;2022-11-15T10:31:48;25.13;;;20.23;;
8060;SDS011;4073;42.626;25.386;2022-11-15T10:34:15;25.93;;;19.33;;
8060;SDS011;4073;42.626;25.386;2022-11-15T10:36:47;25.70;;;21.50;;
8060;SDS011;4073;42.626;25.386;2022-11-15T10:39:22;25.37;;;19.50;;
8060;SDS011;4073;42.626;25.386;2022-11-15T10:41:48;25.20;;;19.80;;
8060;SDS011;4073;42.626;25.386;2022-11-15T10:47:20;26.47;;;19.80;;
8060;SDS011;4073;42.626;25.386;2022-11-15T10:49:53;28.23;;;21.93;;
8060;SDS011;4073;42.626;25.386;2022-11-15T10:52:27;30.37;;;21.60;;
8060;SDS011;4073;42.626;25.386;2022-11-15T10:54:59;28.20;;;20.60;;
8060;SDS011;4073;42.626;25.386;2022-11-15T10:57:29;24.67;;;19.50;;
8060;SDS011;4073;42.626;25.386;2022-11-15T10:59:59;28.93;;;20.50;;
8060;SDS011;4073;42.626;25.386;2022-11-15T11:02:37;22.47;;;17.90;;
8060;SDS011;4073;42.626;25.386;2022-11-15T11:05:06;26.00;;;19.00;;
8060;SDS011;4073;42.626;25.386;2022-11-15T11:07:56;24.57;;;19.13;;
8060;SDS011;4073;42.626;25.386;2022-11-15T11:10:23;24.27;;;19.57;;
8060;SDS011;4073;42.626;25.386;2022-11-15T11:12:49;23.90;;;19.20;;
8060;SDS011;4073;42.626;25.386;2022-11-15T11:15:15;26.93;;;19.83;;
8060;SDS011;4073;42.626;25.386;2022-11-15T11:17:57;27.07;;;20.27;;
8060;SDS011;4073;42.626;25.386;2022-11-15T11:20:39;25.30;;;19.97;;
8060;SDS011;4073;42.626;25.386;2022-11-15T11:23:23;25.47;;;19.83;;
8060;SDS011;4073;42.626;25.386;2022-11-15T11:32:08;23.43;;;18.07;;
8060;SDS011;4073;42.626;25.386;2022-11-15T11:37:36;28.33;;;20.37;;
8060;SDS011;4073;42.626;25.386;2022-11-15T11:47:37;35.70;;;24.47;;
8060;SDS011;4073;42.626;25.386;2022-11-15T11:50:15;30.67;;;24.30;;
8060;SDS011;4073;42.626;25.386;2022-11-15T11:55:46;28.63;;;21.53;;
8060;SDS011;4073;42.626;25.386;2022-11-15T11:58:23;28.30;;;21.23;;
8060;SDS011;4073;42.626;25.386;2022-11-15T12:01:00;30.80;;;22.10;;
8060;SDS011;4073;42.626;25.386;2022-11-15T12:03:30;29.73;;;22.33;;
8060;SDS011;4073;42.626;25.386;2022-11-15T12:06:32;25.70;;;19.83;;
8060;SDS011;4073;42.626;25.386;2022-11-15T12:12:11;25.43;;;19.23;;
8060;SDS011;4073;42.626;25.386;2022-11-15T12:17:24;30.47;;;22.43;;
8060;SDS011;4073;42.626;25.386;2022-11-15T12:19:52;28.77;;;21.90;;
8060;SDS011;4073;42.626;25.386;2022-11-15T12:22:23;36.63;;;23.50;;
8060;SDS011;4073;42.626;25.386;2022-11-15T12:27:37;25.83;;;20.37;;
8060;SDS011;4073;42.626;25.386;2022-11-15T12:30:16;24.87;;;19.10;;
8060;SDS011;4073;42.626;25.386;2022-11-15T12:33:26;25.50;;;19.63;;
8060;SDS011;4073;42.626;25.386;2022-11-15T12:35:34;28.63;;;20.63;;
8060;SDS011;4073;42.626;25.386;2022-11-15T12:38:02;28.17;;;20.73;;
8060;SDS011;4073;42.626;25.386;2022-11-15T12:40:30;26.73;;;18.97;;
8060;SDS011;4073;42.626;25.386;2022-11-15T12:45:49;24.50;;;18.50;;
8060;SDS011;4073;42.626;25.386;2022-11-15T13:06:57;24.10;;;18.53;;
8060;SDS011;4073;42.626;25.386;2022-11-15T13:12:49;24.47;;;19.43;;
8060;SDS011;4073;42.626;25.386;2022-11-15T13:17:37;24.60;;;19.63;;
8060;SDS011;4073;42.626;25.386;2022-11-15T13:30:39;20.67;;;16.23;;
8060;SDS011;4073;42.626;25.386;2022-11-15T13:33:09;20.87;;;18.03;;
8060;SDS011;4073;42.626;25.386;2022-11-15T13:35:40;23.97;;;18.47;;
8060;SDS011;4073;42.626;25.386;2022-11-15T13:38:11;25.03;;;19.67;;
8060;SDS011;4073;42.626;25.386;2022-11-15T13:40:52;22.87;;;17.90;;
8060;SDS011;4073;42.626;25.386;2022-11-15T13:48:31;26.10;;;19.87;;
8060;SDS011;4073;42.626;25.386;2022-11-15T13:50:58;26.20;;;19.83;;
8060;SDS011;4073;42.626;25.386;2022-11-15T13:53:25;22.57;;;17.27;;
8060;SDS011;4073;42.626;25.386;2022-11-15T13:55:51;22.63;;;17.67;;
8060;SDS011;4073;42.626;25.386;2022-11-15T13:58:21;23.90;;;17.63;;
8060;SDS011;4073;42.626;25.386;2022-11-15T14:00:47;27.80;;;20.33;;
8060;SDS011;4073;42.626;25.386;2022-11-15T14:08:38;25.50;;;19.33;;
8060;SDS011;4073;42.626;25.386;2022-11-15T14:11:18;25.40;;;18.77;;
8060;SDS011;4073;42.626;25.386;2022-11-15T14:14:08;27.67;;;20.37;;
8060;SDS011;4073;42.626;25.386;2022-11-15T14:16:48;25.97;;;21.37;;
8060;SDS011;4073;42.626;25.386;2022-11-15T14:24:36;31.60;;;24.97;;
8060;SDS011;4073;42.626;25.386;2022-11-15T14:27:18;29.13;;;22.23;;
8060;SDS011;4073;42.626;25.386;2022-11-15T14:29:46;28.97;;;21.03;;
8060;SDS011;4073;42.626;25.386;2022-11-15T14:32:13;30.30;;;22.37;;
8060;SDS011;4073;42.626;25.386;2022-11-15T14:34:39;30.40;;;21.40;;
8060;SDS011;4073;42.626;25.386;2022-11-15T14:37:05;32.50;;;23.00;;
8060;SDS011;4073;42.626;25.386;2022-11-15T14:39:44;26.80;;;20.53;;
8060;SDS011;4073;42.626;25.386;2022-11-15T14:42:10;29.50;;;22.50;;
8060;SDS011;4073;42.626;25.386;2022-11-15T14:44:35;35.77;;;25.50;;
8060;SDS011;4073;42.626;25.386;2022-11-15T14:47:01;30.93;;;23.13;;
8060;SDS011;4073;42.626;25.386;2022-11-15T14:49:26;31.73;;;23.57;;
8060;SDS011;4073;42.626;25.386;2022-11-15T14:51:52;30.93;;;22.37;;
8060;SDS011;4073;42.626;25.386;2022-11-15T14:54:17;27.63;;;21.40;;
8060;SDS011;4073;42.626;25.386;2022-11-15T14:56:43;31.70;;;22.40;;
8060;SDS011;4073;42.626;25.386;2022-11-15T14:59:08;31.50;;;22.97;;
8060;SDS011;4073;42.626;25.386;2022-11-15T15:01:33;30.77;;;22.20;;
8060;SDS011;4073;42.626;25.386;2022-11-15T15:03:59;36.63;;;26.23;;
8060;SDS011;4073;42.626;25.386;2022-11-15T15:06:25;36.20;;;26.13;;
8060;SDS011;4073;42.626;25.386;2022-11-15T15:08:50;38.30;;;28.73;;
8060;SDS011;4073;42.626;25.386;2022-11-15T15:11:21;37.73;;;28.87;;
8060;SDS011;4073;42.626;25.386;2022-11-15T15:13:49;39.27;;;28.20;;
8060;SDS011;4073;42.626;25.386;2022-11-15T15:16:15;41.97;;;30.23;;
8060;SDS011;4073;42.626;25.386;2022-11-15T15:18:40;41.33;;;31.30;;
8060;SDS011;4073;42.626;25.386;2022-11-15T15:21:14;43.63;;;31.53;;
8060;SDS011;4073;42.626;25.386;2022-11-15T15:23:45;42.67;;;28.93;;
8060;SDS011;4073;42.626;25.386;2022-11-15T15:26:10;41.03;;;31.67;;
8060;SDS011;4073;42.626;25.386;2022-11-15T15:28:36;45.93;;;30.27;;
8060;SDS011;4073;42.626;25.386;2022-11-15T15:31:03;41.60;;;29.93;;
8060;SDS011;4073;42.626;25.386;2022-11-15T15:33:29;41.33;;;28.27;;
8060;SDS011;4073;42.626;25.386;2022-11-15T15:35:54;44.83;;;30.07;;
8060;SDS011;4073;42.626;25.386;2022-11-15T15:38:19;44.37;;;31.77;;
8060;SDS011;4073;42.626;25.386;2022-11-15T15:40:46;43.03;;;29.87;;
8060;SDS011;4073;42.626;25.386;2022-11-15T15:43:12;48.13;;;33.63;;
8060;SDS011;4073;42.626;25.386;2022-11-15T15:45:38;44.73;;;34.63;;
8060;SDS011;4073;42.626;25.386;2022-11-15T15:48:07;45.67;;;33.60;;
8060;SDS011;4073;42.626;25.386;2022-11-15T15:50:36;51.33;;;34.40;;
8060;SDS011;4073;42.626;25.386;2022-11-15T15:53:02;48.53;;;35.73;;
8060;SDS011;4073;42.626;25.386;2022-11-15T15:55:28;54.20;;;37.53;;
8060;SDS011;4073;42.626;25.386;2022-11-15T15:57:54;48.90;;;36.23;;
8060;SDS011;4073;42.626;25.386;2022-11-15T16:00:21;56.37;;;39.17;;
8060;SDS011;4073;42.626;25.386;2022-11-15T16:02:48;59.03;;;40.80;;
8060;SDS011;4073;42.626;25.386;2022-11-15T16:05:14;60.03;;;44.07;;
8060;SDS011;4073;42.626;25.386;2022-11-15T16:07:40;53.07;;;40.47;;
8060;SDS011;4073;42.626;25.386;2022-11-15T16:12:45;54.30;;;40.70;;
8060;SDS011;4073;42.626;25.386;2022-11-15T16:15:11;53.63;;;39.50;;
8060;SDS011;4073;42.626;25.386;2022-11-15T16:17:40;55.40;;;41.50;;
8060;SDS011;4073;42.626;25.386;2022-11-15T16:20:15;54.47;;;41.43;;
8060;SDS011;4073;42.626;25.386;2022-11-15T16:23:07;51.90;;;39.37;;
8060;SDS011;4073;42.626;25.386;2022-11-15T16:25:47;53.70;;;39.63;;
8060;SDS011;4073;42.626;25.386;2022-11-15T16:28:16;53.40;;;37.77;;
8060;SDS011;4073;42.626;25.386;2022-11-15T16:30:42;59.63;;;41.60;;
8060;SDS011;4073;42.626;25.386;2022-11-15T16:33:07;55.03;;;37.70;;
8060;SDS011;4073;42.626;25.386;2022-11-15T16:35:33;55.63;;;38.90;;
8060;SDS011;4073;42.626;25.386;2022-11-15T16:37:58;55.93;;;40.60;;
8060;SDS011;4073;42.626;25.386;2022-11-15T16:40:25;49.93;;;39.63;;
8060;SDS011;4073;42.626;25.386;2022-11-15T16:42:52;55.23;;;41.07;;
8060;SDS011;4073;42.626;25.386;2022-11-15T16:45:18;67.47;;;41.43;;
8060;SDS011;4073;42.626;25.386;2022-11-15T16:47:43;63.97;;;46.90;;
8060;SDS011;4073;42.626;25.386;2022-11-15T16:50:42;61.67;;;48.77;;
8060;SDS011;4073;42.626;25.386;2022-11-15T16:53:07;66.90;;;51.07;;
8060;SDS011;4073;42.626;25.386;2022-11-15T16:55:32;59.17;;;39.17;;
8060;SDS011;4073;42.626;25.386;2022-11-15T16:57:57;52.43;;;37.13;;
8060;SDS011;4073;42.626;25.386;2022-11-15T17:00:24;55.57;;;40.97;;
8060;SDS011;4073;42.626;25.386;2022-11-15T17:02:50;57.87;;;39.43;;
8060;SDS011;4073;42.626;25.386;2022-11-15T17:05:16;48.73;;;37.20;;